Fawnskin, CA

11:50 AM PST on January 30, 2015 (GMT -0800)
RAWS BIG PINE FLAT CA US | Change Station
CLOSE
Current Station
Personal Weather Station
Location: Fawnskin, CA
Elevation: 6860 ft
Nearby Weather Stations

Elev 6860 ft 34.32 °N, 117.01 °W | Updated 1 hour ago

Overcast
Overcast
35 °F
Feels Like 35 °F
N
2
Wind Variable Wind from North
Gusts 7.0 mph

Today
High -- | Low -- °F
--% Chance of Precip.
Yesterday
High -- | Low -- °F
Precip. -- in
6:47 AM 5:15 PM
Waxing Gibbous, 84% visible
Pressure 29.98 in
Visibility 2.0 miles
Clouds Mostly Cloudy 300 ft
Overcast 1100 ft
Windchill 35 °F
Dew Point 35 °F
Humidity 99%
Rainfall 0.18 in
Snow Depth Not available.
UV 2 out of 12
Pollen 6.90 out of 12
Air Quality Not available.
Flu Activity Not available.
METAR KL35 301935Z AUTO 00000KT 2SM -SN BKN003 OVC011 00/00 A2998 RMK AO2 P0003

More Conditions Fewer Conditions

Pressure 29.98 in
Visibility 2.0 miles
Clouds Mostly Cloudy 300 ft
Overcast 1100 ft
Windchill 35 °F
Dew Point 35 °F
Humidity 99%
Rainfall 0.18 in
Snow Depth Not available.
UV 2 out of 12
Pollen 6.90 out of 12
Air Quality Not available.
Flu Activity Not available.
METAR KL35 301935Z AUTO 00000KT 2SM -SN BKN003 OVC011 00/00 A2998 RMK AO2 P0003

More Conditions Fewer Conditions

10-Day Weather Forecast

Almanac

Astronomy

Jan. 30, 2015 Rise Set
Actual Time
Civil Twilight
Nautical Twilight
Astronomical Twilight
Moon
Length of Visible Light
Length of Day
Tomorrow will be .
, % of the Moon is Illuminated

Today's Extremes

State Highs State Lows

Community

WunderPhotos

Upload Photos

1,791,879 photos uploaded!

WunderBlogs® & News

Nearby

Air Quality

  Air Quality AQ Index Pollutant
Not available.

Snow Depth

Station Depth Elevation

Earthquake Activity

City Distance Mag. Time & Date
Minimum magnitude displayed is 2.5.

Coastal Water Temperatures

Place Temperature

Nearby Weather Stations